createdAt,value
2019-05-30T00:01:44.998Z,17.79
2019-05-30T00:04:33.118Z,17.76
2019-05-30T00:07:20.752Z,17.75
2019-05-30T00:10:08.667Z,17.72
2019-05-30T00:12:57.039Z,17.71
2019-05-30T00:15:45.766Z,17.69
2019-05-30T00:18:33.458Z,17.68
2019-05-30T00:21:22.067Z,17.65
2019-05-30T00:24:10.329Z,17.64
2019-05-30T00:26:58.652Z,17.62
2019-05-30T00:29:46.749Z,17.59
2019-05-30T00:32:35.230Z,17.57
2019-05-30T00:35:23.925Z,17.55
2019-05-30T00:38:12.142Z,17.53
2019-05-30T00:41:01.988Z,17.50
2019-05-30T00:43:50.638Z,17.50
2019-05-30T00:46:38.381Z,17.48
2019-05-30T00:49:26.931Z,17.46
2019-05-30T00:52:14.762Z,17.45
2019-05-30T00:55:04.733Z,17.45
2019-05-30T00:57:52.992Z,17.42
2019-05-30T01:00:43.767Z,17.41
2019-05-30T01:03:30.652Z,17.40
2019-05-30T01:06:19.753Z,17.39
2019-05-30T01:09:07.931Z,17.39
2019-05-30T01:11:56.995Z,17.37
2019-05-30T01:14:45.370Z,17.37
2019-05-30T01:17:33.402Z,17.35
2019-05-30T01:20:21.889Z,17.34
2019-05-30T01:23:12.190Z,17.33
2019-05-30T01:26:01.327Z,17.32
2019-05-30T01:28:50.037Z,17.31
2019-05-30T01:31:38.189Z,17.30
2019-05-30T01:34:26.593Z,17.29
2019-05-30T01:37:14.601Z,17.27
2019-05-30T01:40:04.142Z,17.27
2019-05-30T01:42:57.870Z,17.25
2019-05-30T01:45:49.445Z,17.24
2019-05-30T01:48:38.178Z,17.20
2019-05-30T01:51:26.469Z,17.17
2019-05-30T01:54:15.027Z,17.16
2019-05-30T01:57:05.372Z,17.15
2019-05-30T01:59:53.641Z,17.11
2019-05-30T02:02:41.370Z,17.10
2019-05-30T02:05:31.156Z,17.05
2019-05-30T02:08:19.449Z,17.04
2019-05-30T02:11:07.796Z,17.01
2019-05-30T02:13:56.021Z,16.97
2019-05-30T02:16:43.940Z,16.94
2019-05-30T02:19:32.700Z,16.91
2019-05-30T02:22:20.837Z,16.88
2019-05-30T02:25:08.560Z,16.85
2019-05-30T02:27:56.303Z,16.82
2019-05-30T02:30:44.618Z,16.81
2019-05-30T02:33:33.008Z,16.79
2019-05-30T02:36:20.709Z,16.77
2019-05-30T02:39:11.370Z,16.73
2019-05-30T02:42:00.950Z,16.71
2019-05-30T02:44:49.696Z,16.70
2019-05-30T02:47:37.806Z,16.67
2019-05-30T02:50:26.014Z,16.64
2019-05-30T02:53:14.171Z,16.62
2019-05-30T02:56:03.558Z,16.61
2019-05-30T02:58:52.071Z,16.59
2019-05-30T03:01:59.105Z,16.57
2019-05-30T03:04:31.153Z,16.54
2019-05-30T03:07:19.043Z,16.53
2019-05-30T03:10:09.433Z,16.53
2019-05-30T03:12:58.325Z,16.52
2019-05-30T03:15:46.814Z,16.50
2019-05-30T03:18:35.615Z,16.49
2019-05-30T03:21:23.604Z,16.46
2019-05-30T03:24:13.852Z,16.46
2019-05-30T03:27:02.591Z,16.46
2019-05-30T03:29:53.895Z,16.45
2019-05-30T03:35:41.770Z,16.42
2019-05-30T03:38:23.917Z,16.42
2019-05-30T03:41:12.970Z,16.41
2019-05-30T03:44:01.546Z,16.42
2019-05-30T03:46:57.279Z,16.40
2019-05-30T03:49:47.008Z,16.38
2019-05-30T03:52:36.632Z,16.38
2019-05-30T03:55:25.093Z,16.37
2019-05-30T03:58:20.351Z,16.37
2019-05-30T04:01:12.641Z,16.36
2019-05-30T04:04:11.570Z,16.36
2019-05-30T04:07:03.299Z,16.35
2019-05-30T04:09:53.865Z,16.35
2019-05-30T04:13:02.040Z,16.34
2019-05-30T04:15:51.103Z,16.35
2019-05-30T04:18:40.320Z,16.33
2019-05-30T04:21:28.345Z,16.32
2019-05-30T04:24:17.519Z,16.34
2019-05-30T04:27:07.792Z,16.32
2019-05-30T04:29:57.212Z,16.33
2019-05-30T04:33:20.792Z,16.32
2019-05-30T04:35:57.127Z,16.31
2019-05-30T04:38:47.219Z,16.31
2019-05-30T04:41:35.765Z,16.30
2019-05-30T04:44:24.577Z,16.29
2019-05-30T04:47:33.674Z,16.29
2019-05-30T04:50:24.895Z,16.28
2019-05-30T04:53:14.106Z,16.28
2019-05-30T04:56:02.888Z,16.28
2019-05-30T04:58:51.865Z,16.28
2019-05-30T05:01:41.841Z,16.28
2019-05-30T05:04:36.485Z,16.27
2019-05-30T05:07:26.994Z,16.26
2019-05-30T05:10:20.226Z,16.27
2019-05-30T05:13:12.244Z,16.27
2019-05-30T05:16:01.868Z,16.27
2019-05-30T05:18:51.406Z,16.27
2019-05-30T05:21:40.771Z,16.28
2019-05-30T05:24:29.159Z,16.27
2019-05-30T05:27:18.233Z,16.28
2019-05-30T05:30:09.108Z,16.28
2019-05-30T05:32:59.220Z,16.28
2019-05-30T05:35:48.711Z,16.28
2019-05-30T05:38:37.650Z,16.28
2019-05-30T05:41:26.079Z,16.28
2019-05-30T05:44:16.193Z,16.29
2019-05-30T05:47:05.433Z,16.30
2019-05-30T05:49:54.954Z,16.30
2019-05-30T05:52:43.474Z,16.32
2019-05-30T05:55:36.441Z,16.32
2019-05-30T05:58:26.362Z,16.32
2019-05-30T06:01:15.284Z,16.33
2019-05-30T06:04:12.617Z,16.33
2019-05-30T06:06:54.026Z,16.35
2019-05-30T06:09:43.909Z,16.36
2019-05-30T06:12:32.554Z,16.38
2019-05-30T06:15:21.037Z,16.39
2019-05-30T06:18:10.109Z,16.41
2019-05-30T06:20:58.938Z,16.45
2019-05-30T06:23:49.249Z,16.45
2019-05-30T06:26:39.309Z,16.47
2019-05-30T06:29:29.918Z,16.48
2019-05-30T06:32:24.572Z,16.49
2019-05-30T06:35:13.304Z,16.50
2019-05-30T06:38:03.358Z,16.51
2019-05-30T06:40:52.891Z,16.52
2019-05-30T06:43:46.356Z,16.53
2019-05-30T06:46:36.028Z,16.54
2019-05-30T06:49:29.036Z,16.55
2019-05-30T06:52:25.113Z,16.56
2019-05-30T06:55:14.443Z,16.58
2019-05-30T06:58:03.543Z,16.59
2019-05-30T07:00:51.874Z,16.60
2019-05-30T07:03:39.702Z,16.61
2019-05-30T07:06:31.677Z,16.63
2019-05-30T07:09:29.406Z,16.64
2019-05-30T07:12:17.447Z,16.65
2019-05-30T07:15:06.976Z,16.66
2019-05-30T07:17:55.066Z,16.68
2019-05-30T07:20:44.881Z,16.68
2019-05-30T07:23:34.187Z,16.69
2019-05-30T07:26:30.349Z,16.70
2019-05-30T07:29:18.697Z,16.71
2019-05-30T07:32:06.785Z,16.71
2019-05-30T07:35:06.021Z,16.72
2019-05-30T07:37:46.694Z,16.72
2019-05-30T07:40:35.039Z,16.74
2019-05-30T07:43:26.506Z,16.75
2019-05-30T07:46:16.967Z,16.74
2019-05-30T07:49:05.227Z,16.76
2019-05-30T07:51:53.364Z,16.77
2019-05-30T07:54:41.631Z,16.77
2019-05-30T07:57:32.823Z,16.78
2019-05-30T08:00:22.103Z,16.80
2019-05-30T08:03:10.618Z,16.80
2019-05-30T08:05:58.556Z,16.81
2019-05-30T08:08:46.924Z,16.82
2019-05-30T08:11:35.139Z,16.83
2019-05-30T08:14:23.876Z,16.84
2019-05-30T08:17:12.389Z,16.86
2019-05-30T08:20:00.528Z,16.87
2019-05-30T08:22:50.709Z,16.88
2019-05-30T08:25:39.201Z,16.89
2019-05-30T08:28:28.769Z,16.91
2019-05-30T08:31:17.442Z,16.93
2019-05-30T08:34:05.807Z,16.94
2019-05-30T08:36:54.149Z,16.95
2019-05-30T08:39:42.627Z,16.96
2019-05-30T08:42:31.390Z,16.99
2019-05-30T08:45:20.529Z,17.00
2019-05-30T08:48:08.577Z,17.03
2019-05-30T08:50:56.919Z,17.05
2019-05-30T08:53:45.367Z,17.08
2019-05-30T08:56:34.467Z,17.12
2019-05-30T08:59:23.245Z,17.14
2019-05-30T09:02:11.490Z,17.18
2019-05-30T09:05:00.376Z,17.20
2019-05-30T09:07:48.532Z,17.24
2019-05-30T09:10:37.818Z,17.28
2019-05-30T09:13:27.669Z,17.32
2019-05-30T09:16:15.998Z,17.36
2019-05-30T09:19:04.256Z,17.40
2019-05-30T09:21:52.288Z,17.46
2019-05-30T09:24:42.167Z,17.50
2019-05-30T09:27:30.684Z,17.55
2019-05-30T09:30:19.404Z,17.59
2019-05-30T09:33:07.821Z,17.64
2019-05-30T09:36:09.987Z,17.68
2019-05-30T09:38:47.381Z,17.73
2019-05-30T09:41:36.385Z,17.76
2019-05-30T09:44:25.601Z,17.80
2019-05-30T09:47:14.290Z,17.84
2019-05-30T09:50:03.937Z,17.88
2019-05-30T09:52:53.902Z,17.91
2019-05-30T09:55:43.290Z,17.95
2019-05-30T09:58:36.796Z,17.99
2019-05-30T10:01:26.382Z,18.05
2019-05-30T10:04:15.315Z,18.08
2019-05-30T10:07:06.798Z,18.11
2019-05-30T10:09:55.278Z,18.16
2019-05-30T10:12:45.581Z,18.24
2019-05-30T10:15:36.463Z,18.36
2019-05-30T10:18:27.444Z,18.49
2019-05-30T10:21:25.399Z,18.63
2019-05-30T10:24:21.434Z,18.77
2019-05-30T10:27:10.508Z,18.90
2019-05-30T10:30:04.059Z,18.99
2019-05-30T10:32:55.916Z,19.07
2019-05-30T10:35:47.525Z,19.15
2019-05-30T10:38:37.869Z,19.22
2019-05-30T10:41:28.811Z,19.29
2019-05-30T10:44:21.377Z,19.37
2019-05-30T10:47:10.154Z,19.45
2019-05-30T10:49:58.640Z,19.53
2019-05-30T10:52:47.198Z,19.58
2019-05-30T10:55:39.711Z,19.64
2019-05-30T10:58:31.781Z,19.69
2019-05-30T11:01:27.470Z,19.76
2019-05-30T11:04:18.433Z,19.82
2019-05-30T11:07:26.365Z,19.90
2019-05-30T11:10:23.009Z,19.98
2019-05-30T11:13:11.636Z,20.04
2019-05-30T11:15:59.938Z,20.10
2019-05-30T11:18:50.982Z,20.17
2019-05-30T11:21:43.333Z,20.28
2019-05-30T11:24:32.290Z,20.39
2019-05-30T11:27:22.271Z,20.47
2019-05-30T11:30:11.069Z,20.57
2019-05-30T11:32:59.601Z,20.62
2019-05-30T11:35:48.938Z,20.69
2019-05-30T11:38:38.000Z,20.75
2019-05-30T11:41:27.300Z,20.80
2019-05-30T11:44:19.333Z,20.88
2019-05-30T11:47:09.564Z,20.96
2019-05-30T11:50:00.635Z,21.03
2019-05-30T11:52:50.170Z,21.09
2019-05-30T11:55:41.969Z,21.15
2019-05-30T11:58:30.149Z,21.19
2019-05-30T12:01:19.806Z,21.21
2019-05-30T12:04:08.665Z,21.26
2019-05-30T12:06:57.551Z,21.33
2019-05-30T12:09:48.289Z,21.37
2019-05-30T12:12:40.277Z,21.42
2019-05-30T12:15:28.560Z,21.47
2019-05-30T12:18:19.149Z,21.51
2019-05-30T12:21:08.263Z,21.57
2019-05-30T12:23:58.463Z,21.61
2019-05-30T12:26:47.828Z,21.69
2019-05-30T12:29:36.923Z,21.77
2019-05-30T12:32:26.110Z,21.85
2019-05-30T12:35:15.407Z,21.93
2019-05-30T12:38:07.086Z,22.03
2019-05-30T12:40:58.723Z,22.15
2019-05-30T12:43:47.883Z,22.27
2019-05-30T12:46:38.033Z,22.38
2019-05-30T12:49:27.081Z,22.46
2019-05-30T12:52:16.991Z,22.55
2019-05-30T12:55:06.852Z,22.62
2019-05-30T12:57:56.587Z,22.70
2019-05-30T13:00:45.640Z,22.78
2019-05-30T13:03:34.780Z,22.84
2019-05-30T13:06:23.855Z,22.91
2019-05-30T13:09:13.115Z,22.99
2019-05-30T13:12:02.589Z,23.04
2019-05-30T13:14:52.153Z,23.09
2019-05-30T13:17:40.551Z,23.13
2019-05-30T13:20:28.782Z,23.18
2019-05-30T13:23:17.446Z,23.23
2019-05-30T13:26:05.966Z,23.30
2019-05-30T13:28:54.240Z,23.33
2019-05-30T13:31:42.863Z,23.37
2019-05-30T13:34:32.026Z,23.40
2019-05-30T13:37:21.105Z,23.43
2019-05-30T13:40:24.180Z,23.48
2019-05-30T13:43:00.263Z,23.56
2019-05-30T13:45:49.323Z,23.61
2019-05-30T13:48:38.003Z,23.66
2019-05-30T13:51:27.196Z,23.71
2019-05-30T13:54:16.259Z,23.71
2019-05-30T13:57:06.031Z,23.74
2019-05-30T13:59:55.821Z,23.80
2019-05-30T14:02:44.749Z,23.89
2019-05-30T14:05:33.044Z,24.00
2019-05-30T14:08:21.121Z,24.13
2019-05-30T14:11:10.730Z,24.25
2019-05-30T14:14:00.528Z,24.37
2019-05-30T14:16:49.013Z,24.49
2019-05-30T14:19:37.717Z,24.64
2019-05-30T14:22:26.107Z,24.79
2019-05-30T14:25:15.187Z,24.90
2019-05-30T14:28:04.154Z,25.00
2019-05-30T14:30:53.171Z,25.07
2019-05-30T14:33:42.408Z,25.13
2019-05-30T14:36:30.669Z,25.18
2019-05-30T14:39:19.739Z,25.25
2019-05-30T14:42:09.190Z,25.33
2019-05-30T14:44:57.370Z,25.40
2019-05-30T14:47:45.250Z,25.46
2019-05-30T14:50:34.218Z,25.53
2019-05-30T14:53:22.951Z,25.61
2019-05-30T14:56:13.349Z,25.70
2019-05-30T14:59:02.331Z,25.77
2019-05-30T15:01:50.082Z,25.89
2019-05-30T15:04:38.086Z,25.98
2019-05-30T15:07:27.054Z,26.07
2019-05-30T15:10:18.647Z,26.17
2019-05-30T15:13:07.512Z,26.27
2019-05-30T15:15:57.125Z,26.38
2019-05-30T15:18:46.644Z,26.47
2019-05-30T15:21:34.987Z,26.57
2019-05-30T15:24:23.900Z,26.63
2019-05-30T15:27:14.095Z,26.70
2019-05-30T15:30:02.261Z,26.82
2019-05-30T15:32:50.500Z,26.94
2019-05-30T15:35:39.492Z,27.04
2019-05-30T15:38:27.259Z,27.16
2019-05-30T15:41:15.297Z,27.28
2019-05-30T15:44:04.126Z,27.36
2019-05-30T15:46:56.903Z,27.44
2019-05-30T15:49:51.875Z,27.51
2019-05-30T15:52:39.310Z,27.50
2019-05-30T15:55:27.728Z,27.51
2019-05-30T15:58:16.125Z,27.47
2019-05-30T16:01:05.022Z,27.46
2019-05-30T16:03:54.269Z,27.45
2019-05-30T16:06:43.949Z,27.41
2019-05-30T16:09:46.239Z,27.36
2019-05-30T16:12:23.509Z,27.35
2019-05-30T16:15:13.419Z,27.34
2019-05-30T16:18:03.962Z,27.31
2019-05-30T16:21:02.133Z,27.24
2019-05-30T16:23:52.366Z,27.18
2019-05-30T16:26:44.120Z,27.10
2019-05-30T16:33:04.132Z,26.90
2019-05-30T16:35:52.702Z,26.85
2019-05-30T16:38:42.203Z,26.88
2019-05-30T16:41:31.003Z,26.93
2019-05-30T16:44:25.066Z,26.97
2019-05-30T16:47:14.610Z,27.05
2019-05-30T16:50:03.609Z,27.18
2019-05-30T16:52:52.540Z,27.27
2019-05-30T16:55:41.814Z,27.38
2019-05-30T16:58:30.192Z,27.42
2019-05-30T17:01:19.849Z,27.35
2019-05-30T17:04:08.511Z,27.29
2019-05-30T17:06:57.267Z,27.15
2019-05-30T17:09:45.344Z,27.02
2019-05-30T17:12:33.778Z,26.90
2019-05-30T17:15:22.109Z,26.75
2019-05-30T17:18:10.832Z,26.63
2019-05-30T17:20:59.157Z,26.51
2019-05-30T17:23:49.114Z,26.41
2019-05-30T17:26:38.610Z,26.28
2019-05-30T17:29:32.211Z,26.16
2019-05-30T17:32:21.745Z,26.06
2019-05-30T17:35:11.976Z,25.94
2019-05-30T17:38:00.680Z,25.83
2019-05-30T17:40:51.126Z,25.72
2019-05-30T17:43:39.734Z,25.63
2019-05-30T17:46:30.055Z,25.51
2019-05-30T17:49:20.153Z,25.43
2019-05-30T17:52:08.650Z,25.33
2019-05-30T17:55:08.566Z,25.25
2019-05-30T17:58:00.722Z,25.14
2019-05-30T18:00:56.888Z,25.05
2019-05-30T18:03:45.279Z,24.95
2019-05-30T18:06:34.495Z,24.86
2019-05-30T18:09:23.085Z,24.77
2019-05-30T18:12:17.616Z,24.67
2019-05-30T18:15:07.212Z,24.57
2019-05-30T18:18:02.844Z,24.49
2019-05-30T18:21:05.138Z,24.40
2019-05-30T18:23:55.593Z,24.31
2019-05-30T18:26:44.905Z,24.22
2019-05-30T18:29:33.469Z,24.13
2019-05-30T18:32:22.243Z,24.05
2019-05-30T18:35:12.696Z,23.98
2019-05-30T18:38:02.004Z,23.91
2019-05-30T18:40:51.065Z,23.82
2019-05-30T18:43:39.724Z,23.76
2019-05-30T18:46:29.210Z,23.68
2019-05-30T18:49:17.837Z,23.61
2019-05-30T18:52:07.156Z,23.55
2019-05-30T18:54:55.297Z,23.46
2019-05-30T18:57:45.459Z,23.38
2019-05-30T19:00:37.404Z,23.32
2019-05-30T19:03:28.573Z,23.23
2019-05-30T19:06:23.082Z,23.16
2019-05-30T19:09:11.991Z,23.09
2019-05-30T19:12:01.202Z,23.03
2019-05-30T19:14:52.845Z,22.97
2019-05-30T19:17:42.424Z,22.89
2019-05-30T19:20:31.859Z,22.82
2019-05-30T19:23:21.548Z,22.78
2019-05-30T19:26:10.424Z,22.71
2019-05-30T19:28:59.738Z,22.64
2019-05-30T19:31:51.577Z,22.58
2019-05-30T19:34:44.841Z,22.50
2019-05-30T19:37:35.332Z,22.41
2019-05-30T19:40:27.308Z,22.33
2019-05-30T19:43:18.456Z,22.26
2019-05-30T19:46:07.379Z,22.19
2019-05-30T19:48:56.758Z,22.11
2019-05-30T19:51:45.951Z,22.03
2019-05-30T19:54:37.272Z,21.95
2019-05-30T19:57:25.835Z,21.89
2019-05-30T20:00:19.061Z,21.81
2019-05-30T20:03:08.076Z,21.73
2019-05-30T20:05:58.382Z,21.65
2019-05-30T20:08:55.398Z,21.58
2019-05-30T20:11:42.134Z,21.50
2019-05-30T20:14:32.926Z,21.43
2019-05-30T20:17:22.366Z,21.34
2019-05-30T20:20:13.363Z,21.30
2019-05-30T20:23:01.906Z,21.23
2019-05-30T20:25:53.621Z,21.15
2019-05-30T20:28:42.983Z,21.08
2019-05-30T20:31:33.358Z,21.01
2019-05-30T20:34:24.398Z,20.96
2019-05-30T20:37:13.700Z,20.89
2019-05-30T20:40:02.416Z,20.82
2019-05-30T20:42:52.684Z,20.76
2019-05-30T20:45:48.880Z,20.71
2019-05-30T20:48:43.011Z,20.66
2019-05-30T20:51:37.193Z,20.60
2019-05-30T20:54:26.516Z,20.56
2019-05-30T20:57:14.442Z,20.50
2019-05-30T21:00:03.638Z,20.48
2019-05-30T21:02:53.590Z,20.44
2019-05-30T21:05:44.098Z,20.41
2019-05-30T21:08:33.005Z,20.37
2019-05-30T21:11:22.420Z,20.34
2019-05-30T21:14:11.556Z,20.33
2019-05-30T21:17:00.521Z,20.28
2019-05-30T21:19:50.372Z,20.27
2019-05-30T21:22:40.509Z,20.25
2019-05-30T21:25:29.637Z,20.21
2019-05-30T21:28:21.639Z,20.18
2019-05-30T21:31:10.463Z,20.16
2019-05-30T21:34:04.157Z,20.14
2019-05-30T21:36:56.728Z,20.12
2019-05-30T21:39:46.092Z,20.10
2019-05-30T21:42:34.110Z,20.08
2019-05-30T21:45:24.301Z,20.05
2019-05-30T21:48:12.736Z,20.03
2019-05-30T21:51:03.029Z,20.03
2019-05-30T21:53:52.945Z,20.00
2019-05-30T21:56:43.990Z,19.99
2019-05-30T21:59:37.905Z,19.97
2019-05-30T22:02:27.820Z,19.96
2019-05-30T22:05:16.753Z,19.92
2019-05-30T22:08:08.903Z,19.91
2019-05-30T22:10:58.857Z,19.89
2019-05-30T22:13:48.001Z,19.86
2019-05-30T22:16:38.932Z,19.83
2019-05-30T22:19:28.491Z,19.82
2019-05-30T22:22:17.196Z,19.80
2019-05-30T22:25:07.415Z,19.79
2019-05-30T22:27:56.720Z,19.77
2019-05-30T22:30:46.930Z,19.74
2019-05-30T22:33:35.888Z,19.73
2019-05-30T22:36:25.147Z,19.72
2019-05-30T22:39:14.748Z,19.71
2019-05-30T22:42:04.497Z,19.70
2019-05-30T22:44:56.571Z,19.67
2019-05-30T22:47:46.366Z,19.66
2019-05-30T22:50:36.852Z,19.65
2019-05-30T22:53:25.149Z,19.63
2019-05-30T22:56:13.314Z,19.62
2019-05-30T22:59:02.787Z,19.60
2019-05-30T23:01:53.722Z,19.60
2019-05-30T23:04:44.254Z,19.58
2019-05-30T23:07:36.602Z,19.56
2019-05-30T23:10:33.640Z,19.55
2019-05-30T23:13:22.825Z,19.53
2019-05-30T23:16:13.777Z,19.51
2019-05-30T23:19:03.073Z,19.49
2019-05-30T23:21:53.289Z,19.48
2019-05-30T23:24:43.543Z,19.45
2019-05-30T23:27:32.584Z,19.44
2019-05-30T23:30:23.739Z,19.43
2019-05-30T23:33:14.031Z,19.42
2019-05-30T23:36:02.923Z,19.40
2019-05-30T23:38:51.036Z,19.38
2019-05-30T23:41:39.708Z,19.36
2019-05-30T23:44:30.448Z,19.35
2019-05-30T23:47:27.605Z,19.34
2019-05-30T23:50:17.666Z,19.33
2019-05-30T23:53:09.028Z,19.31
2019-05-30T23:55:58.420Z,19.29
2019-05-30T23:58:48.541Z,19.26
